sensor_id;sensor_type;location;lat;lon;timestamp;P1;durP1;ratioP1;P2;durP2;ratioP2
40917;SDS011;26644;50.248;19.032;2022-08-05T00:02:37;10.15;;;7.13;;
40917;SDS011;26644;50.248;19.032;2022-08-05T00:05:39;11.60;;;6.72;;
40917;SDS011;26644;50.248;19.032;2022-08-05T00:08:43;14.55;;;8.40;;
40917;SDS011;26644;50.248;19.032;2022-08-05T00:11:46;17.08;;;8.40;;
40917;SDS011;26644;50.248;19.032;2022-08-05T00:14:48;13.20;;;7.72;;
40917;SDS011;26644;50.248;19.032;2022-08-05T00:17:50;13.13;;;7.70;;
40917;SDS011;26644;50.248;19.032;2022-08-05T00:20:52;10.80;;;7.30;;
40917;SDS011;26644;50.248;19.032;2022-08-05T00:23:55;8.70;;;7.57;;
40917;SDS011;26644;50.248;19.032;2022-08-05T00:26:58;12.55;;;8.00;;
40917;SDS011;26644;50.248;19.032;2022-08-05T00:30:00;12.27;;;7.82;;
40917;SDS011;26644;50.248;19.032;2022-08-05T00:33:01;12.75;;;7.40;;
40917;SDS011;26644;50.248;19.032;2022-08-05T00:36:04;18.30;;;8.60;;
40917;SDS011;26644;50.248;19.032;2022-08-05T00:39:06;12.43;;;7.75;;
40917;SDS011;26644;50.248;19.032;2022-08-05T00:42:10;13.02;;;8.27;;
40917;SDS011;26644;50.248;19.032;2022-08-05T00:45:12;12.98;;;9.25;;
40917;SDS011;26644;50.248;19.032;2022-08-05T00:48:15;13.70;;;9.55;;
40917;SDS011;26644;50.248;19.032;2022-08-05T00:51:18;14.98;;;8.27;;
40917;SDS011;26644;50.248;19.032;2022-08-05T00:54:21;12.73;;;7.70;;
40917;SDS011;26644;50.248;19.032;2022-08-05T00:57:24;16.10;;;8.20;;
40917;SDS011;26644;50.248;19.032;2022-08-05T01:00:26;13.55;;;7.65;;
40917;SDS011;26644;50.248;19.032;2022-08-05T01:03:28;10.98;;;8.02;;
40917;SDS011;26644;50.248;19.032;2022-08-05T01:06:30;13.57;;;7.70;;
40917;SDS011;26644;50.248;19.032;2022-08-05T01:09:32;15.45;;;8.63;;
40917;SDS011;26644;50.248;19.032;2022-08-05T01:12:35;13.30;;;8.45;;
40917;SDS011;26644;50.248;19.032;2022-08-05T01:15:39;13.50;;;7.88;;
40917;SDS011;26644;50.248;19.032;2022-08-05T01:18:49;11.73;;;8.90;;
40917;SDS011;26644;50.248;19.032;2022-08-05T01:22:01;16.50;;;9.52;;
40917;SDS011;26644;50.248;19.032;2022-08-05T01:25:31;13.95;;;9.75;;
40917;SDS011;26644;50.248;19.032;2022-08-05T01:28:42;12.80;;;9.05;;
40917;SDS011;26644;50.248;19.032;2022-08-05T01:31:47;10.90;;;9.25;;
40917;SDS011;26644;50.248;19.032;2022-08-05T01:34:53;17.23;;;9.55;;
40917;SDS011;26644;50.248;19.032;2022-08-05T01:37:57;14.50;;;9.20;;
40917;SDS011;26644;50.248;19.032;2022-08-05T01:41:01;16.17;;;9.10;;
40917;SDS011;26644;50.248;19.032;2022-08-05T01:44:07;13.32;;;9.38;;
40917;SDS011;26644;50.248;19.032;2022-08-05T01:47:10;15.52;;;9.02;;
40917;SDS011;26644;50.248;19.032;2022-08-05T01:50:14;14.52;;;9.73;;
40917;SDS011;26644;50.248;19.032;2022-08-05T01:53:19;14.90;;;9.70;;
40917;SDS011;26644;50.248;19.032;2022-08-05T01:56:23;15.48;;;9.52;;
40917;SDS011;26644;50.248;19.032;2022-08-05T01:59:30;18.30;;;9.73;;
40917;SDS011;26644;50.248;19.032;2022-08-05T02:02:36;13.60;;;9.32;;
40917;SDS011;26644;50.248;19.032;2022-08-05T02:05:39;13.65;;;9.80;;
40917;SDS011;26644;50.248;19.032;2022-08-05T02:08:43;17.63;;;9.73;;
40917;SDS011;26644;50.248;19.032;2022-08-05T02:11:46;14.18;;;9.85;;
40917;SDS011;26644;50.248;19.032;2022-08-05T02:15:02;15.30;;;9.63;;
40917;SDS011;26644;50.248;19.032;2022-08-05T02:18:09;16.40;;;9.50;;
40917;SDS011;26644;50.248;19.032;2022-08-05T02:21:19;17.73;;;9.73;;
40917;SDS011;26644;50.248;19.032;2022-08-05T02:24:26;14.07;;;9.88;;
40917;SDS011;26644;50.248;19.032;2022-08-05T02:27:33;13.05;;;9.85;;
40917;SDS011;26644;50.248;19.032;2022-08-05T02:30:41;13.30;;;9.70;;
40917;SDS011;26644;50.248;19.032;2022-08-05T02:33:46;16.00;;;10.30;;
40917;SDS011;26644;50.248;19.032;2022-08-05T02:36:52;17.25;;;9.63;;
40917;SDS011;26644;50.248;19.032;2022-08-05T02:39:57;22.05;;;10.45;;
40917;SDS011;26644;50.248;19.032;2022-08-05T02:43:01;16.33;;;10.20;;
40917;SDS011;26644;50.248;19.032;2022-08-05T02:46:04;13.60;;;10.52;;
40917;SDS011;26644;50.248;19.032;2022-08-05T02:49:07;17.58;;;10.73;;
40917;SDS011;26644;50.248;19.032;2022-08-05T02:52:12;14.57;;;10.20;;
40917;SDS011;26644;50.248;19.032;2022-08-05T02:55:17;20.92;;;11.25;;
40917;SDS011;26644;50.248;19.032;2022-08-05T02:58:19;16.95;;;10.82;;
40917;SDS011;26644;50.248;19.032;2022-08-05T03:01:24;15.43;;;9.60;;
40917;SDS011;26644;50.248;19.032;2022-08-05T03:04:27;16.85;;;9.73;;
40917;SDS011;26644;50.248;19.032;2022-08-05T03:07:29;15.80;;;9.77;;
40917;SDS011;26644;50.248;19.032;2022-08-05T03:10:32;18.88;;;10.23;;
40917;SDS011;26644;50.248;19.032;2022-08-05T03:13:33;17.55;;;10.55;;
40917;SDS011;26644;50.248;19.032;2022-08-05T03:16:37;15.27;;;9.48;;
40917;SDS011;26644;50.248;19.032;2022-08-05T03:19:38;14.52;;;10.00;;
40917;SDS011;26644;50.248;19.032;2022-08-05T03:22:40;17.30;;;9.90;;
40917;SDS011;26644;50.248;19.032;2022-08-05T03:25:42;18.40;;;10.10;;
40917;SDS011;26644;50.248;19.032;2022-08-05T03:28:44;17.38;;;10.90;;
40917;SDS011;26644;50.248;19.032;2022-08-05T03:31:48;19.02;;;10.13;;
40917;SDS011;26644;50.248;19.032;2022-08-05T03:34:50;16.80;;;9.95;;
40917;SDS011;26644;50.248;19.032;2022-08-05T03:37:52;15.80;;;9.52;;
40917;SDS011;26644;50.248;19.032;2022-08-05T03:40:57;16.95;;;10.45;;
40917;SDS011;26644;50.248;19.032;2022-08-05T03:43:58;20.77;;;11.48;;
40917;SDS011;26644;50.248;19.032;2022-08-05T03:47:02;13.85;;;10.15;;
40917;SDS011;26644;50.248;19.032;2022-08-05T03:50:04;16.83;;;10.75;;
40917;SDS011;26644;50.248;19.032;2022-08-05T03:53:06;14.27;;;10.35;;
40917;SDS011;26644;50.248;19.032;2022-08-05T03:56:14;14.95;;;9.82;;
40917;SDS011;26644;50.248;19.032;2022-08-05T03:59:23;15.48;;;9.13;;
40917;SDS011;26644;50.248;19.032;2022-08-05T04:02:30;14.65;;;9.55;;
40917;SDS011;26644;50.248;19.032;2022-08-05T04:05:34;13.13;;;8.73;;
40917;SDS011;26644;50.248;19.032;2022-08-05T04:08:38;12.48;;;8.68;;
40917;SDS011;26644;50.248;19.032;2022-08-05T04:11:41;15.25;;;8.82;;
40917;SDS011;26644;50.248;19.032;2022-08-05T04:14:44;13.18;;;8.35;;
40917;SDS011;26644;50.248;19.032;2022-08-05T04:17:47;15.88;;;9.00;;
40917;SDS011;26644;50.248;19.032;2022-08-05T04:20:53;12.98;;;9.38;;
40917;SDS011;26644;50.248;19.032;2022-08-05T04:23:56;15.77;;;8.38;;
40917;SDS011;26644;50.248;19.032;2022-08-05T04:26:58;15.27;;;8.75;;
40917;SDS011;26644;50.248;19.032;2022-08-05T04:30:00;13.57;;;8.48;;
40917;SDS011;26644;50.248;19.032;2022-08-05T04:33:03;13.57;;;7.63;;
40917;SDS011;26644;50.248;19.032;2022-08-05T04:36:05;9.95;;;6.80;;
40917;SDS011;26644;50.248;19.032;2022-08-05T04:39:08;10.10;;;6.95;;
40917;SDS011;26644;50.248;19.032;2022-08-05T04:42:10;9.77;;;7.25;;
40917;SDS011;26644;50.248;19.032;2022-08-05T04:45:12;13.43;;;7.30;;
40917;SDS011;26644;50.248;19.032;2022-08-05T04:48:15;12.00;;;7.10;;
40917;SDS011;26644;50.248;19.032;2022-08-05T04:51:17;9.13;;;7.35;;
40917;SDS011;26644;50.248;19.032;2022-08-05T04:54:19;11.98;;;7.18;;
40917;SDS011;26644;50.248;19.032;2022-08-05T04:57:21;12.18;;;7.32;;
40917;SDS011;26644;50.248;19.032;2022-08-05T05:00:23;12.23;;;7.13;;
40917;SDS011;26644;50.248;19.032;2022-08-05T05:03:26;14.00;;;7.45;;
40917;SDS011;26644;50.248;19.032;2022-08-05T05:06:28;8.77;;;6.63;;
40917;SDS011;26644;50.248;19.032;2022-08-05T05:09:30;14.48;;;7.75;;
40917;SDS011;26644;50.248;19.032;2022-08-05T05:12:32;8.75;;;6.72;;
40917;SDS011;26644;50.248;19.032;2022-08-05T05:15:34;9.07;;;6.82;;
40917;SDS011;26644;50.248;19.032;2022-08-05T05:18:37;14.45;;;7.60;;
40917;SDS011;26644;50.248;19.032;2022-08-05T05:21:39;10.10;;;7.25;;
40917;SDS011;26644;50.248;19.032;2022-08-05T05:24:40;10.10;;;7.78;;
40917;SDS011;26644;50.248;19.032;2022-08-05T05:27:42;10.73;;;7.50;;
40917;SDS011;26644;50.248;19.032;2022-08-05T05:30:45;11.93;;;7.55;;
40917;SDS011;26644;50.248;19.032;2022-08-05T05:33:48;11.23;;;7.63;;
40917;SDS011;26644;50.248;19.032;2022-08-05T05:36:50;9.30;;;6.95;;
40917;SDS011;26644;50.248;19.032;2022-08-05T05:39:52;19.77;;;7.72;;
40917;SDS011;26644;50.248;19.032;2022-08-05T05:42:54;15.27;;;7.18;;
40917;SDS011;26644;50.248;19.032;2022-08-05T05:45:56;12.60;;;6.90;;
40917;SDS011;26644;50.248;19.032;2022-08-05T05:48:59;9.85;;;6.63;;
40917;SDS011;26644;50.248;19.032;2022-08-05T05:52:01;8.73;;;6.28;;
40917;SDS011;26644;50.248;19.032;2022-08-05T05:55:04;12.07;;;7.18;;
40917;SDS011;26644;50.248;19.032;2022-08-05T05:58:08;9.98;;;6.82;;
40917;SDS011;26644;50.248;19.032;2022-08-05T06:01:10;12.52;;;6.22;;
40917;SDS011;26644;50.248;19.032;2022-08-05T06:04:13;11.27;;;6.88;;
40917;SDS011;26644;50.248;19.032;2022-08-05T06:07:15;9.60;;;6.43;;
40917;SDS011;26644;50.248;19.032;2022-08-05T06:10:16;11.15;;;6.75;;
40917;SDS011;26644;50.248;19.032;2022-08-05T06:13:18;8.02;;;7.05;;
40917;SDS011;26644;50.248;19.032;2022-08-05T06:16:20;10.40;;;5.90;;
40917;SDS011;26644;50.248;19.032;2022-08-05T06:19:23;10.93;;;6.97;;
40917;SDS011;26644;50.248;19.032;2022-08-05T06:22:27;11.70;;;6.53;;
40917;SDS011;26644;50.248;19.032;2022-08-05T06:25:29;11.07;;;7.05;;
40917;SDS011;26644;50.248;19.032;2022-08-05T06:28:31;8.63;;;6.28;;
40917;SDS011;26644;50.248;19.032;2022-08-05T06:31:33;12.63;;;6.35;;
40917;SDS011;26644;50.248;19.032;2022-08-05T06:34:36;11.30;;;6.93;;
40917;SDS011;26644;50.248;19.032;2022-08-05T06:37:38;7.38;;;6.45;;
40917;SDS011;26644;50.248;19.032;2022-08-05T06:40:40;10.63;;;6.85;;
40917;SDS011;26644;50.248;19.032;2022-08-05T06:43:42;7.13;;;5.97;;
40917;SDS011;26644;50.248;19.032;2022-08-05T06:46:44;10.43;;;6.25;;
40917;SDS011;26644;50.248;19.032;2022-08-05T06:49:47;11.32;;;6.47;;
40917;SDS011;26644;50.248;19.032;2022-08-05T06:52:49;7.65;;;5.60;;
40917;SDS011;26644;50.248;19.032;2022-08-05T06:55:51;6.93;;;5.57;;
40917;SDS011;26644;50.248;19.032;2022-08-05T06:58:53;9.75;;;6.03;;
40917;SDS011;26644;50.248;19.032;2022-08-05T07:01:55;8.38;;;6.05;;
40917;SDS011;26644;50.248;19.032;2022-08-05T07:05:01;11.70;;;6.50;;
40917;SDS011;26644;50.248;19.032;2022-08-05T07:08:04;6.82;;;5.78;;
40917;SDS011;26644;50.248;19.032;2022-08-05T07:11:08;8.60;;;6.43;;
40917;SDS011;26644;50.248;19.032;2022-08-05T07:14:09;8.05;;;6.13;;
40917;SDS011;26644;50.248;19.032;2022-08-05T07:17:29;9.23;;;5.95;;
40917;SDS011;26644;50.248;19.032;2022-08-05T07:20:33;10.95;;;6.30;;
40917;SDS011;26644;50.248;19.032;2022-08-05T07:23:35;8.45;;;6.22;;
40917;SDS011;26644;50.248;19.032;2022-08-05T07:26:37;9.93;;;6.22;;
40917;SDS011;26644;50.248;19.032;2022-08-05T07:29:39;9.70;;;6.75;;
40917;SDS011;26644;50.248;19.032;2022-08-05T07:32:41;11.55;;;5.68;;
40917;SDS011;26644;50.248;19.032;2022-08-05T07:35:44;8.90;;;5.45;;
40917;SDS011;26644;50.248;19.032;2022-08-05T07:38:46;8.05;;;5.88;;
40917;SDS011;26644;50.248;19.032;2022-08-05T07:41:48;9.55;;;5.47;;
40917;SDS011;26644;50.248;19.032;2022-08-05T07:44:50;8.30;;;5.15;;
40917;SDS011;26644;50.248;19.032;2022-08-05T07:47:52;9.82;;;5.60;;
40917;SDS011;26644;50.248;19.032;2022-08-05T07:50:55;10.52;;;5.82;;
40917;SDS011;26644;50.248;19.032;2022-08-05T07:53:57;7.35;;;6.03;;
40917;SDS011;26644;50.248;19.032;2022-08-05T07:56:59;9.90;;;5.50;;
40917;SDS011;26644;50.248;19.032;2022-08-05T08:00:02;10.20;;;5.38;;
40917;SDS011;26644;50.248;19.032;2022-08-05T08:03:12;6.55;;;4.97;;
40917;SDS011;26644;50.248;19.032;2022-08-05T08:06:16;7.72;;;5.18;;
40917;SDS011;26644;50.248;19.032;2022-08-05T08:09:17;7.35;;;5.63;;
40917;SDS011;26644;50.248;19.032;2022-08-05T08:12:20;9.93;;;5.25;;
40917;SDS011;26644;50.248;19.032;2022-08-05T08:15:21;7.15;;;5.55;;
40917;SDS011;26644;50.248;19.032;2022-08-05T08:18:23;8.43;;;5.10;;
40917;SDS011;26644;50.248;19.032;2022-08-05T08:21:26;11.48;;;5.28;;
40917;SDS011;26644;50.248;19.032;2022-08-05T08:24:28;7.85;;;4.78;;
40917;SDS011;26644;50.248;19.032;2022-08-05T08:27:31;5.75;;;4.80;;
40917;SDS011;26644;50.248;19.032;2022-08-05T08:30:33;6.53;;;5.28;;
40917;SDS011;26644;50.248;19.032;2022-08-05T08:33:35;6.88;;;5.05;;
40917;SDS011;26644;50.248;19.032;2022-08-05T08:36:38;5.70;;;4.45;;
40917;SDS011;26644;50.248;19.032;2022-08-05T08:39:40;5.75;;;4.60;;
40917;SDS011;26644;50.248;19.032;2022-08-05T08:42:43;4.85;;;4.25;;
40917;SDS011;26644;50.248;19.032;2022-08-05T08:45:50;4.53;;;4.13;;
40917;SDS011;26644;50.248;19.032;2022-08-05T08:48:54;5.05;;;4.53;;
40917;SDS011;26644;50.248;19.032;2022-08-05T08:52:00;5.82;;;4.30;;
40917;SDS011;26644;50.248;19.032;2022-08-05T08:55:08;4.43;;;4.03;;
40917;SDS011;26644;50.248;19.032;2022-08-05T08:58:10;6.07;;;4.75;;
40917;SDS011;26644;50.248;19.032;2022-08-05T09:01:16;6.10;;;4.03;;
40917;SDS011;26644;50.248;19.032;2022-08-05T09:04:18;4.97;;;4.47;;
40917;SDS011;26644;50.248;19.032;2022-08-05T09:07:21;5.93;;;4.47;;
40917;SDS011;26644;50.248;19.032;2022-08-05T09:10:23;6.63;;;4.63;;
40917;SDS011;26644;50.248;19.032;2022-08-05T09:13:25;4.53;;;4.13;;
40917;SDS011;26644;50.248;19.032;2022-08-05T09:16:27;4.60;;;4.20;;
40917;SDS011;26644;50.248;19.032;2022-08-05T09:19:29;5.38;;;3.75;;
40917;SDS011;26644;50.248;19.032;2022-08-05T09:26:07;6.65;;;4.22;;
40917;SDS011;26644;50.248;19.032;2022-08-05T09:29:10;3.90;;;3.60;;
40917;SDS011;26644;50.248;19.032;2022-08-05T09:32:13;5.97;;;4.07;;
40917;SDS011;26644;50.248;19.032;2022-08-05T09:35:18;5.38;;;3.88;;
40917;SDS011;26644;50.248;19.032;2022-08-05T09:38:21;12.40;;;4.22;;
40917;SDS011;26644;50.248;19.032;2022-08-05T09:41:24;5.97;;;3.72;;
40917;SDS011;26644;50.248;19.032;2022-08-05T09:44:33;5.47;;;3.47;;
40917;SDS011;26644;50.248;19.032;2022-08-05T09:47:38;4.47;;;3.92;;
40917;SDS011;26644;50.248;19.032;2022-08-05T09:50:41;6.50;;;4.70;;
40917;SDS011;26644;50.248;19.032;2022-08-05T09:53:48;5.25;;;3.58;;
40917;SDS011;26644;50.248;19.032;2022-08-05T09:56:51;5.85;;;4.15;;
40917;SDS011;26644;50.248;19.032;2022-08-05T09:59:55;5.60;;;4.60;;
40917;SDS011;26644;50.248;19.032;2022-08-05T10:02:58;3.92;;;3.58;;
40917;SDS011;26644;50.248;19.032;2022-08-05T10:06:09;4.88;;;3.70;;
40917;SDS011;26644;50.248;19.032;2022-08-05T10:09:14;4.32;;;3.60;;
40917;SDS011;26644;50.248;19.032;2022-08-05T10:12:16;6.25;;;4.03;;
40917;SDS011;26644;50.248;19.032;2022-08-05T10:15:23;5.05;;;4.10;;
40917;SDS011;26644;50.248;19.032;2022-08-05T10:18:26;6.50;;;3.80;;
40917;SDS011;26644;50.248;19.032;2022-08-05T10:21:31;4.75;;;3.95;;
40917;SDS011;26644;50.248;19.032;2022-08-05T10:24:34;5.07;;;3.45;;
40917;SDS011;26644;50.248;19.032;2022-08-05T10:27:36;4.28;;;3.83;;
40917;SDS011;26644;50.248;19.032;2022-08-05T10:30:39;5.25;;;3.95;;
40917;SDS011;26644;50.248;19.032;2022-08-05T10:33:41;6.10;;;4.05;;
40917;SDS011;26644;50.248;19.032;2022-08-05T10:36:43;7.93;;;4.65;;
40917;SDS011;26644;50.248;19.032;2022-08-05T10:39:47;5.50;;;3.92;;
40917;SDS011;26644;50.248;19.032;2022-08-05T10:42:53;4.80;;;3.67;;
40917;SDS011;26644;50.248;19.032;2022-08-05T10:46:00;4.30;;;3.75;;
40917;SDS011;26644;50.248;19.032;2022-08-05T10:49:03;8.57;;;5.38;;
40917;SDS011;26644;50.248;19.032;2022-08-05T10:52:08;4.13;;;3.72;;
40917;SDS011;26644;50.248;19.032;2022-08-05T10:55:12;5.68;;;3.90;;
40917;SDS011;26644;50.248;19.032;2022-08-05T10:58:15;6.05;;;4.55;;
40917;SDS011;26644;50.248;19.032;2022-08-05T11:01:17;5.10;;;3.80;;
40917;SDS011;26644;50.248;19.032;2022-08-05T11:04:27;8.57;;;4.13;;
40917;SDS011;26644;50.248;19.032;2022-08-05T11:07:29;9.15;;;3.92;;
40917;SDS011;26644;50.248;19.032;2022-08-05T11:10:33;6.25;;;3.72;;
40917;SDS011;26644;50.248;19.032;2022-08-05T11:13:38;4.65;;;3.97;;
40917;SDS011;26644;50.248;19.032;2022-08-05T11:16:41;5.38;;;4.60;;
40917;SDS011;26644;50.248;19.032;2022-08-05T11:19:43;6.25;;;4.70;;
40917;SDS011;26644;50.248;19.032;2022-08-05T11:22:46;6.95;;;4.35;;
40917;SDS011;26644;50.248;19.032;2022-08-05T11:26:05;7.25;;;5.00;;
40917;SDS011;26644;50.248;19.032;2022-08-05T11:29:14;6.80;;;4.90;;
40917;SDS011;26644;50.248;19.032;2022-08-05T11:32:39;5.07;;;4.60;;
40917;SDS011;26644;50.248;19.032;2022-08-05T11:35:51;6.18;;;4.63;;
40917;SDS011;26644;50.248;19.032;2022-08-05T11:38:54;12.93;;;5.30;;
40917;SDS011;26644;50.248;19.032;2022-08-05T11:41:57;5.97;;;5.05;;
40917;SDS011;26644;50.248;19.032;2022-08-05T11:45:00;8.32;;;4.63;;
40917;SDS011;26644;50.248;19.032;2022-08-05T11:48:06;7.05;;;4.85;;
40917;SDS011;26644;50.248;19.032;2022-08-05T11:51:09;7.35;;;4.90;;
40917;SDS011;26644;50.248;19.032;2022-08-05T11:54:11;7.82;;;4.80;;
40917;SDS011;26644;50.248;19.032;2022-08-05T11:57:15;8.32;;;5.35;;
40917;SDS011;26644;50.248;19.032;2022-08-05T12:00:26;5.47;;;4.93;;
40917;SDS011;26644;50.248;19.032;2022-08-05T12:03:29;5.68;;;4.75;;
40917;SDS011;26644;50.248;19.032;2022-08-05T12:06:40;5.65;;;5.13;;
40917;SDS011;26644;50.248;19.032;2022-08-05T12:09:44;6.28;;;4.90;;
40917;SDS011;26644;50.248;19.032;2022-08-05T12:12:50;5.55;;;4.90;;
40917;SDS011;26644;50.248;19.032;2022-08-05T12:15:52;6.35;;;5.75;;
40917;SDS011;26644;50.248;19.032;2022-08-05T12:18:54;7.15;;;6.07;;
40917;SDS011;26644;50.248;19.032;2022-08-05T12:21:56;10.40;;;6.15;;
40917;SDS011;26644;50.248;19.032;2022-08-05T12:24:58;8.00;;;6.20;;
40917;SDS011;26644;50.248;19.032;2022-08-05T12:28:01;7.22;;;6.00;;
40917;SDS011;26644;50.248;19.032;2022-08-05T12:31:03;6.60;;;5.70;;
40917;SDS011;26644;50.248;19.032;2022-08-05T12:34:06;5.50;;;5.00;;
40917;SDS011;26644;50.248;19.032;2022-08-05T12:37:09;6.28;;;5.55;;
40917;SDS011;26644;50.248;19.032;2022-08-05T12:40:11;5.28;;;4.50;;
40917;SDS011;26644;50.248;19.032;2022-08-05T12:43:15;6.15;;;4.88;;
40917;SDS011;26644;50.248;19.032;2022-08-05T12:46:20;5.07;;;4.00;;
40917;SDS011;26644;50.248;19.032;2022-08-05T12:49:23;7.82;;;5.30;;
40917;SDS011;26644;50.248;19.032;2022-08-05T12:52:25;7.28;;;5.13;;
40917;SDS011;26644;50.248;19.032;2022-08-05T12:55:28;7.25;;;5.30;;
40917;SDS011;26644;50.248;19.032;2022-08-05T12:58:32;6.97;;;6.13;;
40917;SDS011;26644;50.248;19.032;2022-08-05T13:01:34;7.03;;;5.43;;
40917;SDS011;26644;50.248;19.032;2022-08-05T13:04:37;7.22;;;5.00;;
40917;SDS011;26644;50.248;19.032;2022-08-05T13:07:41;7.13;;;5.07;;
40917;SDS011;26644;50.248;19.032;2022-08-05T13:10:43;9.23;;;6.13;;
40917;SDS011;26644;50.248;19.032;2022-08-05T13:13:48;4.93;;;4.38;;
40917;SDS011;26644;50.248;19.032;2022-08-05T13:16:52;7.65;;;5.13;;
40917;SDS011;26644;50.248;19.032;2022-08-05T13:19:59;7.53;;;5.55;;
40917;SDS011;26644;50.248;19.032;2022-08-05T13:23:03;6.93;;;5.13;;
40917;SDS011;26644;50.248;19.032;2022-08-05T13:26:05;11.50;;;6.65;;
40917;SDS011;26644;50.248;19.032;2022-08-05T13:29:09;5.88;;;4.75;;
40917;SDS011;26644;50.248;19.032;2022-08-05T13:32:11;7.65;;;4.80;;
40917;SDS011;26644;50.248;19.032;2022-08-05T13:35:13;6.20;;;4.80;;
40917;SDS011;26644;50.248;19.032;2022-08-05T13:38:15;6.65;;;5.00;;
40917;SDS011;26644;50.248;19.032;2022-08-05T13:41:17;5.53;;;4.72;;
40917;SDS011;26644;50.248;19.032;2022-08-05T13:44:20;5.25;;;4.75;;
40917;SDS011;26644;50.248;19.032;2022-08-05T13:47:22;8.10;;;4.90;;
40917;SDS011;26644;50.248;19.032;2022-08-05T13:50:24;7.68;;;4.80;;
40917;SDS011;26644;50.248;19.032;2022-08-05T13:53:26;5.55;;;4.15;;
40917;SDS011;26644;50.248;19.032;2022-08-05T13:56:28;6.68;;;4.75;;
40917;SDS011;26644;50.248;19.032;2022-08-05T13:59:31;6.88;;;4.45;;
40917;SDS011;26644;50.248;19.032;2022-08-05T14:02:33;8.65;;;4.80;;
40917;SDS011;26644;50.248;19.032;2022-08-05T14:05:35;6.35;;;4.70;;
40917;SDS011;26644;50.248;19.032;2022-08-05T14:08:37;7.35;;;4.82;;
40917;SDS011;26644;50.248;19.032;2022-08-05T14:11:38;5.80;;;4.63;;
40917;SDS011;26644;50.248;19.032;2022-08-05T14:14:42;5.40;;;4.72;;
40917;SDS011;26644;50.248;19.032;2022-08-05T14:17:43;9.63;;;4.85;;
40917;SDS011;26644;50.248;19.032;2022-08-05T14:20:45;4.88;;;4.40;;
40917;SDS011;26644;50.248;19.032;2022-08-05T14:23:47;6.13;;;4.72;;
40917;SDS011;26644;50.248;19.032;2022-08-05T14:26:49;5.30;;;4.80;;
40917;SDS011;26644;50.248;19.032;2022-08-05T14:29:53;8.57;;;5.65;;
40917;SDS011;26644;50.248;19.032;2022-08-05T14:32:54;5.28;;;4.78;;
40917;SDS011;26644;50.248;19.032;2022-08-05T14:35:56;8.95;;;5.03;;
40917;SDS011;26644;50.248;19.032;2022-08-05T14:38:58;5.50;;;4.55;;
40917;SDS011;26644;50.248;19.032;2022-08-05T14:42:00;6.55;;;4.47;;
40917;SDS011;26644;50.248;19.032;2022-08-05T14:45:04;5.95;;;4.68;;
40917;SDS011;26644;50.248;19.032;2022-08-05T14:48:06;6.95;;;4.53;;
40917;SDS011;26644;50.248;19.032;2022-08-05T14:51:08;7.00;;;4.32;;
40917;SDS011;26644;50.248;19.032;2022-08-05T14:54:10;6.32;;;4.15;;
40917;SDS011;26644;50.248;19.032;2022-08-05T14:57:12;6.88;;;4.03;;
40917;SDS011;26644;50.248;19.032;2022-08-05T15:00:15;7.43;;;4.40;;
40917;SDS011;26644;50.248;19.032;2022-08-05T15:03:17;6.18;;;4.10;;
40917;SDS011;26644;50.248;19.032;2022-08-05T15:06:19;8.55;;;4.05;;
40917;SDS011;26644;50.248;19.032;2022-08-05T15:09:21;6.88;;;3.63;;
40917;SDS011;26644;50.248;19.032;2022-08-05T15:12:23;5.82;;;3.78;;
40917;SDS011;26644;50.248;19.032;2022-08-05T15:15:26;8.02;;;4.57;;
40917;SDS011;26644;50.248;19.032;2022-08-05T15:18:28;6.72;;;4.00;;
40917;SDS011;26644;50.248;19.032;2022-08-05T15:21:30;8.70;;;4.78;;
40917;SDS011;26644;50.248;19.032;2022-08-05T15:24:32;5.57;;;4.40;;
40917;SDS011;26644;50.248;19.032;2022-08-05T15:27:34;9.00;;;4.57;;
40917;SDS011;26644;50.248;19.032;2022-08-05T15:30:37;9.27;;;5.20;;
40917;SDS011;26644;50.248;19.032;2022-08-05T15:33:39;17.77;;;8.82;;
40917;SDS011;26644;50.248;19.032;2022-08-05T15:36:41;7.85;;;4.72;;
40917;SDS011;26644;50.248;19.032;2022-08-05T15:39:43;8.95;;;4.18;;
40917;SDS011;26644;50.248;19.032;2022-08-05T15:42:45;6.65;;;4.50;;
40917;SDS011;26644;50.248;19.032;2022-08-05T15:45:48;8.40;;;6.10;;
40917;SDS011;26644;50.248;19.032;2022-08-05T15:48:50;17.33;;;7.68;;
40917;SDS011;26644;50.248;19.032;2022-08-05T15:51:53;11.82;;;5.53;;
40917;SDS011;26644;50.248;19.032;2022-08-05T15:54:54;6.95;;;4.93;;
40917;SDS011;26644;50.248;19.032;2022-08-05T15:57:56;8.93;;;5.65;;
40917;SDS011;26644;50.248;19.032;2022-08-05T16:00:59;5.53;;;4.97;;
40917;SDS011;26644;50.248;19.032;2022-08-05T16:04:03;9.20;;;5.00;;
40917;SDS011;26644;50.248;19.032;2022-08-05T16:07:06;19.60;;;11.32;;
40917;SDS011;26644;50.248;19.032;2022-08-05T16:10:08;13.50;;;8.35;;
40917;SDS011;26644;50.248;19.032;2022-08-05T16:13:10;10.43;;;7.53;;
40917;SDS011;26644;50.248;19.032;2022-08-05T16:16:13;15.60;;;10.25;;
40917;SDS011;26644;50.248;19.032;2022-08-05T16:19:15;5.95;;;4.72;;
40917;SDS011;26644;50.248;19.032;2022-08-05T16:22:17;7.80;;;4.75;;
40917;SDS011;26644;50.248;19.032;2022-08-05T16:25:19;6.97;;;4.90;;
40917;SDS011;26644;50.248;19.032;2022-08-05T16:28:20;10.15;;;5.70;;
40917;SDS011;26644;50.248;19.032;2022-08-05T16:31:25;8.10;;;5.63;;
40917;SDS011;26644;50.248;19.032;2022-08-05T16:34:27;11.63;;;7.75;;
40917;SDS011;26644;50.248;19.032;2022-08-05T16:37:29;7.88;;;4.88;;
40917;SDS011;26644;50.248;19.032;2022-08-05T16:40:33;10.45;;;6.15;;
40917;SDS011;26644;50.248;19.032;2022-08-05T16:43:35;10.95;;;7.07;;
40917;SDS011;26644;50.248;19.032;2022-08-05T16:46:38;13.57;;;8.65;;
40917;SDS011;26644;50.248;19.032;2022-08-05T16:49:41;20.02;;;9.88;;
40917;SDS011;26644;50.248;19.032;2022-08-05T16:52:43;15.55;;;9.23;;
40917;SDS011;26644;50.248;19.032;2022-08-05T16:55:45;11.63;;;7.65;;
40917;SDS011;26644;50.248;19.032;2022-08-05T16:58:47;9.90;;;5.47;;
40917;SDS011;26644;50.248;19.032;2022-08-05T17:01:50;11.95;;;7.25;;
40917;SDS011;26644;50.248;19.032;2022-08-05T17:04:52;13.55;;;9.20;;
40917;SDS011;26644;50.248;19.032;2022-08-05T17:07:54;10.63;;;7.20;;
40917;SDS011;26644;50.248;19.032;2022-08-05T17:10:55;14.00;;;8.30;;
40917;SDS011;26644;50.248;19.032;2022-08-05T17:13:58;5.97;;;5.38;;
40917;SDS011;26644;50.248;19.032;2022-08-05T17:17:01;15.30;;;8.52;;
40917;SDS011;26644;50.248;19.032;2022-08-05T17:20:04;13.63;;;10.57;;
40917;SDS011;26644;50.248;19.032;2022-08-05T17:23:08;15.40;;;8.90;;
40917;SDS011;26644;50.248;19.032;2022-08-05T17:26:10;9.25;;;7.40;;
40917;SDS011;26644;50.248;19.032;2022-08-05T17:29:12;8.05;;;6.78;;
40917;SDS011;26644;50.248;19.032;2022-08-05T17:32:15;16.48;;;9.80;;
40917;SDS011;26644;50.248;19.032;2022-08-05T17:35:17;16.95;;;7.78;;
40917;SDS011;26644;50.248;19.032;2022-08-05T17:38:18;8.07;;;6.25;;
40917;SDS011;26644;50.248;19.032;2022-08-05T17:41:20;9.20;;;6.55;;
40917;SDS011;26644;50.248;19.032;2022-08-05T17:44:22;12.00;;;7.88;;
40917;SDS011;26644;50.248;19.032;2022-08-05T17:47:26;14.48;;;8.55;;
40917;SDS011;26644;50.248;19.032;2022-08-05T17:50:28;19.85;;;13.00;;
40917;SDS011;26644;50.248;19.032;2022-08-05T17:53:29;15.20;;;7.15;;
40917;SDS011;26644;50.248;19.032;2022-08-05T17:56:31;19.02;;;8.73;;
40917;SDS011;26644;50.248;19.032;2022-08-05T17:59:33;13.98;;;7.57;;
40917;SDS011;26644;50.248;19.032;2022-08-05T18:02:36;15.25;;;7.85;;
40917;SDS011;26644;50.248;19.032;2022-08-05T18:05:38;11.95;;;7.50;;